Time;durP1;ratioP1;P1;durP2;ratioP2;P2;SDS_P1;SDS_P2;PMS_P1;PMS_P2;Temp;Humidity;BMP_temperature;BMP_pressure;BME280_temperature;BME280_humidity;BME280_pressure;Samples;Min_cycle;Max_cycle;Signal;HPM_P1;HPM_P2
2023/01/08 00:00:51;;;;;;;7.03;3.90;;;;;;;;;;5007137;28;20465;-77
2023/01/08 00:03:17;;;;;;;5.97;3.80;;;;;;;;;;5026744;28;20499;-77
2023/01/08 00:05:44;;;;;;;5.80;4.07;;;;;;;;;;4991058;28;20494;-76
2023/01/08 00:08:10;;;;;;;5.80;3.83;;;;;;;;;;5034680;28;20425;-76
2023/01/08 00:10:37;;;;;;;6.05;3.50;;;;;;;;;;5081638;28;20424;-76
2023/01/08 00:13:03;;;;;;;5.75;3.70;;;;;;;;;;5042995;28;20431;-76
2023/01/08 00:15:29;;;;;;;6.50;3.63;;;;;;;;;;5023712;28;20939;-77
2023/01/08 00:17:56;;;;;;;6.57;3.80;;;;;;;;;;5004609;28;20424;-77
2023/01/08 00:20:22;;;;;;;6.53;3.60;;;;;;;;;;5025739;28;20432;-77
2023/01/08 00:22:48;;;;;;;5.13;3.45;;;;;;;;;;4989491;28;20443;-77
2023/01/08 00:25:15;;;;;;;5.75;3.45;;;;;;;;;;5025786;28;20417;-77
2023/01/08 00:27:41;;;;;;;8.27;3.83;;;;;;;;;;5076590;28;20396;-76
2023/01/08 00:30:07;;;;;;;6.07;3.43;;;;;;;;;;4992993;28;20511;-76
2023/01/08 00:32:33;;;;;;;5.75;3.60;;;;;;;;;;4990759;28;20422;-76
2023/01/08 00:35:00;;;;;;;7.93;3.60;;;;;;;;;;4975966;28;20428;-76
2023/01/08 00:37:26;;;;;;;6.03;3.92;;;;;;;;;;4992833;28;20425;-76
2023/01/08 00:39:52;;;;;;;7.53;3.95;;;;;;;;;;4991685;28;20890;-77
2023/01/08 00:42:19;;;;;;;6.53;3.67;;;;;;;;;;4995021;28;20485;-76
2023/01/08 00:44:45;;;;;;;6.80;3.63;;;;;;;;;;4979142;28;20525;-76
2023/01/08 00:47:11;;;;;;;6.53;3.80;;;;;;;;;;5026030;28;20428;-76
2023/01/08 00:49:38;;;;;;;5.72;3.40;;;;;;;;;;5009591;28;20425;-76
2023/01/08 00:52:04;;;;;;;6.18;3.60;;;;;;;;;;5001843;28;20429;-76
2023/01/08 00:54:30;;;;;;;5.78;3.50;;;;;;;;;;5024677;28;20420;-76
2023/01/08 00:56:56;;;;;;;5.05;3.38;;;;;;;;;;5014360;28;20436;-76
2023/01/08 00:59:22;;;;;;;6.63;3.30;;;;;;;;;;5000832;28;20935;-75
2023/01/08 01:01:48;;;;;;;5.43;3.28;;;;;;;;;;4999519;28;20500;-76
2023/01/08 01:04:14;;;;;;;5.97;2.90;;;;;;;;;;5011751;28;20424;-76
2023/01/08 01:06:41;;;;;;;6.80;3.20;;;;;;;;;;5036715;28;20421;-75
2023/01/08 01:09:07;;;;;;;5.28;2.83;;;;;;;;;;5007732;28;21001;-76
2023/01/08 01:11:33;;;;;;;6.60;2.75;;;;;;;;;;5018486;28;20425;-76
2023/01/08 01:13:59;;;;;;;6.80;3.10;;;;;;;;;;5007594;28;20432;-76
2023/01/08 01:16:25;;;;;;;4.47;2.57;;;;;;;;;;4976934;28;20420;-76
2023/01/08 01:18:53;;;;;;;4.43;2.60;;;;;;;;;;5023422;28;20468;-76
2023/01/08 01:21:27;;;;;;;5.07;2.53;;;;;;;;;;5017236;28;20442;-76
2023/01/08 01:23:53;;;;;;;4.70;2.83;;;;;;;;;;4995138;28;20450;-76
2023/01/08 01:26:20;;;;;;;5.35;2.92;;;;;;;;;;4996559;28;20496;-76
2023/01/08 01:28:47;;;;;;;6.25;3.10;;;;;;;;;;5009047;28;20417;-76
2023/01/08 01:31:13;;;;;;;5.00;3.30;;;;;;;;;;5023944;28;20492;-76
2023/01/08 01:33:40;;;;;;;5.85;3.28;;;;;;;;;;5073758;28;20416;-76
2023/01/08 01:36:06;;;;;;;5.97;3.30;;;;;;;;;;4999850;28;20436;-76
2023/01/08 01:38:32;;;;;;;7.60;3.70;;;;;;;;;;5025923;28;20448;-76
2023/01/08 01:40:59;;;;;;;5.85;2.92;;;;;;;;;;4992635;28;20908;-76
2023/01/08 01:43:39;;;;;;;5.70;3.07;;;;;;;;;;5000059;28;20499;-76
2023/01/08 01:46:33;;;;;;;7.38;3.17;;;9.80;99.90;;;;;;4993566;28;20750;-76
2023/01/08 01:49:04;;;;;;;6.20;3.00;;;9.70;99.90;;;;;;4988705;28;20455;-75
2023/01/08 01:51:32;;;;;;;6.25;3.10;;;;;;;;;;5035916;28;20930;-76
2023/01/08 01:53:59;;;;;;;7.53;2.77;;;;;;;;;;5010130;28;20457;-76
2023/01/08 01:56:25;;;;;;;6.38;2.60;;;;;;;;;;5009798;28;20473;-76
2023/01/08 01:58:51;;;;;;;5.97;2.63;;;;;;;;;;5023248;28;20434;-76
2023/01/08 02:01:17;;;;;;;9.13;2.67;;;;;;;;;;4992346;28;20440;-75
2023/01/08 02:03:43;;;;;;;9.43;2.60;;;;;;;;;;5028208;28;20425;-75
2023/01/08 02:06:19;;;;;;;6.35;2.45;;;;;;;;;;5007670;28;20463;-75
2023/01/08 02:08:45;;;;;;;6.85;2.28;;;;;;;;;;4998226;28;20436;-75
2023/01/08 02:11:20;;;;;;;9.90;2.20;;;;;;;;;;4981283;28;20467;-75
2023/01/08 02:13:54;;;;;;;7.78;2.22;;;9.00;99.90;;;;;;5024391;28;20436;-76
2023/01/08 02:16:47;;;;;;;11.60;2.50;;;9.30;99.90;;;;;;4976871;28;20425;-76
2023/01/08 02:19:19;;;;;;;9.23;2.40;;;;;;;;;;5018665;28;20504;-75
2023/01/08 02:22:04;;;;;;;8.18;2.28;;;;;;;;;;5000492;28;20500;-76
2023/01/08 02:24:37;;;;;;;11.47;2.43;;;;;;;;;;4992290;28;20488;-76
2023/01/08 02:27:05;;;;;;;9.20;2.20;;;9.20;99.90;;;;;;5024051;28;20772;-74
2023/01/08 02:29:32;;;;;;;10.07;2.28;;;;;;;;;;5008255;28;20475;-76
2023/01/08 02:31:58;;;;;;;13.88;2.33;;;;;;;;;;4991440;28;20425;-76
2023/01/08 02:34:24;;;;;;;11.07;2.42;;;;;;;;;;5014918;28;20425;-76
2023/01/08 02:36:51;;;;;;;10.55;2.67;;;;;;;;;;5007355;28;20424;-75
2023/01/08 02:39:17;;;;;;;11.40;2.40;;;;;;;;;;4984479;28;20485;-76
2023/01/08 02:41:49;;;;;;;8.30;2.38;;;;;;;;;;5006264;28;20556;-75
2023/01/08 02:44:19;;;;;;;9.32;2.28;;;;;;;;;;5012357;28;20474;-75
2023/01/08 02:46:46;;;;;;;13.00;2.42;;;;;;;;;;5022654;28;20920;-75
2023/01/08 02:49:13;;;;;;;10.80;2.45;;;;;;;;;;4993989;28;20431;-75
2023/01/08 02:51:42;;;;;;;11.00;2.30;;;;;;;;;;5034898;28;20471;-76
2023/01/08 02:54:10;;;;;;;16.20;2.92;;;;;;;;;;4995654;28;20433;-76
2023/01/08 02:56:42;;;;;;;9.90;2.25;;;8.80;99.90;;;;;;4977317;28;20481;-75
2023/01/08 02:59:11;;;;;;;9.43;2.30;;;8.80;99.90;;;;;;5007982;28;20895;-75
2023/01/08 03:01:38;;;;;;;9.88;2.63;;;;;;;;;;5010170;28;20429;-75
2023/01/08 03:04:07;;;;;;;12.90;2.40;;;;;;;;;;5007903;28;20437;-75
2023/01/08 03:06:33;;;;;;;7.40;2.13;;;;;;;;;;4991360;28;20420;-76
2023/01/08 03:09:00;;;;;;;10.32;2.45;;;;;;;;;;5007962;28;20465;-75
2023/01/08 03:11:30;;;;;;;11.40;2.85;;;;;;;;;;5022760;28;20425;-75
2023/01/08 03:14:06;;;;;;;8.93;2.50;;;;;;;;;;4991161;28;20754;-75
2023/01/08 03:16:35;;;;;;;8.60;2.15;;;;;;;;;;5006427;28;20437;-76
2023/01/08 03:19:24;;;;;;;9.98;2.50;;;8.50;99.90;;;;;;5007952;28;20433;-76
2023/01/08 03:21:51;;;;;;;12.95;3.30;;;;;;;;;;4991598;28;20425;-76
2023/01/08 03:24:19;;;;;;;9.57;2.80;;;;;;;;;;4977393;28;20422;-75
2023/01/08 03:26:46;;;;;;;13.85;2.80;;;;;;;;;;4981790;28;20429;-76
2023/01/08 03:29:14;;;;;;;10.50;3.10;;;;;;;;;;4991241;28;20429;-76
2023/01/08 03:31:40;;;;;;;10.35;2.55;;;;;;;;;;5040982;27;20462;-76
2023/01/08 03:34:06;;;;;;;8.27;2.40;;;;;;;;;;4991208;28;20429;-76
2023/01/08 03:36:33;;;;;;;10.85;2.80;;;;;;;;;;5009837;28;20446;-76
2023/01/08 03:39:00;;;;;;;10.65;2.50;;;;;;;;;;4990995;28;20449;-76
2023/01/08 03:41:29;;;;;;;7.78;2.30;;;;;;;;;;5035334;28;20428;-76
2023/01/08 03:43:55;;;;;;;9.05;2.47;;;;;;;;;;4998370;28;20428;-75
2023/01/08 03:46:25;;;;;;;12.30;2.65;;;;;;;;;;5017305;28;20461;-76
2023/01/08 03:48:52;;;;;;;6.28;2.63;;;;;;;;;;4994146;28;20904;-76
2023/01/08 03:51:18;;;;;;;10.20;2.60;;;;;;;;;;5003210;28;20429;-75
2023/01/08 03:53:46;;;;;;;7.70;2.53;;;;;;;;;;4979341;28;20424;-75
2023/01/08 03:56:13;;;;;;;6.95;2.60;;;;;;;;;;5006945;28;20964;-75
2023/01/08 03:58:39;;;;;;;8.57;2.70;;;;;;;;;;5006139;28;20785;-76
2023/01/08 04:01:05;;;;;;;9.75;2.58;;;;;;;;;;5010851;28;20429;-76
2023/01/08 04:03:31;;;;;;;6.90;2.42;;;;;;;;;;5013548;28;20928;-76
2023/01/08 04:05:59;;;;;;;9.77;2.83;;;;;;;;;;5006839;28;20908;-75
2023/01/08 04:08:25;;;;;;;7.90;3.28;;;;;;;;;;5005799;28;20927;-76
2023/01/08 04:10:51;;;;;;;7.30;3.50;;;;;;;;;;4997573;28;20416;-76
2023/01/08 04:13:17;;;;;;;9.27;3.00;;;;;;;;;;4968429;28;20432;-76
2023/01/08 04:15:47;;;;;;;7.78;3.05;;;;;;;;;;5041566;28;20879;-76
2023/01/08 04:18:13;;;;;;;8.80;3.20;;;;;;;;;;4990834;28;20425;-76
2023/01/08 04:20:39;;;;;;;7.05;2.85;;;;;;;;;;4991316;28;20429;-76
2023/01/08 04:23:06;;;;;;;8.80;3.40;;;;;;;;;;5039451;28;20489;-76
2023/01/08 04:25:32;;;;;;;11.35;3.25;;;;;;;;;;5080856;28;20446;-76
2023/01/08 04:27:58;;;;;;;7.22;3.55;;;;;;;;;;5027748;28;20502;-76
2023/01/08 04:30:24;;;;;;;9.50;3.70;;;;;;;;;;5006613;28;20420;-76
2023/01/08 04:32:50;;;;;;;8.15;3.30;;;;;;;;;;4984777;28;20474;-75
2023/01/08 04:35:16;;;;;;;7.72;3.35;;;;;;;;;;4993799;28;20424;-76
2023/01/08 04:37:42;;;;;;;8.60;3.35;;;;;;;;;;5026767;28;20404;-75
2023/01/08 04:40:08;;;;;;;8.35;3.40;;;;;;;;;;5000676;28;20425;-75
2023/01/08 04:42:34;;;;;;;12.50;3.53;;;;;;;;;;5010526;28;20409;-75
2023/01/08 04:45:00;;;;;;;10.38;3.70;;;;;;;;;;5023856;28;20424;-75
2023/01/08 04:47:26;;;;;;;8.48;3.80;;;;;;;;;;4995812;28;20412;-76
2023/01/08 04:49:52;;;;;;;9.18;3.60;;;;;;;;;;4992606;28;20520;-76
2023/01/08 04:52:18;;;;;;;8.05;3.75;;;;;;;;;;5038232;28;20944;-76
2023/01/08 04:54:47;;;;;;;8.52;3.60;;;;;;;;;;4988472;28;20443;-76
2023/01/08 04:57:13;;;;;;;10.52;3.45;;;;;;;;;;4993753;28;20928;-76
2023/01/08 04:59:39;;;;;;;7.43;4.10;;;;;;;;;;4992940;28;20518;-76
2023/01/08 05:02:05;;;;;;;7.35;3.50;;;;;;;;;;5023819;28;20428;-76
2023/01/08 05:04:31;;;;;;;6.53;3.60;;;;;;;;;;4985273;28;20788;-76
2023/01/08 05:06:57;;;;;;;9.17;4.20;;;;;;;;;;5009595;28;20457;-76
2023/01/08 05:09:23;;;;;;;8.00;3.70;;;;;;;;;;5009076;28;20441;-76
2023/01/08 05:11:50;;;;;;;6.47;3.70;;;;;;;;;;5009324;28;20431;-76
2023/01/08 05:14:16;;;;;;;7.95;3.60;;;;;;;;;;5028962;27;20460;-75
2023/01/08 05:16:42;;;;;;;6.38;3.30;;;;;;;;;;5027227;27;20502;-76
2023/01/08 05:19:08;;;;;;;8.45;3.17;;;;;;;;;;5025435;28;20500;-76
2023/01/08 05:21:34;;;;;;;8.57;3.03;;;;;;;;;;5013886;28;20482;-75
2023/01/08 05:24:00;;;;;;;6.60;3.10;;;;;;;;;;5007328;28;21801;-75
2023/01/08 05:26:26;;;;;;;6.93;2.97;;;;;;;;;;4992328;28;20416;-76
2023/01/08 05:28:52;;;;;;;9.40;3.25;;;;;;;;;;5001589;28;20583;-75
2023/01/08 05:31:18;;;;;;;7.33;2.70;;;;;;;;;;5039077;28;20455;-75
2023/01/08 05:33:44;;;;;;;6.22;2.70;;;;;;;;;;5024038;28;20417;-76
2023/01/08 05:36:13;;;;;;;6.97;2.75;;;;;;;;;;4993885;28;20424;-76
2023/01/08 05:38:41;;;;;;;7.75;2.70;;;;;;;;;;5009509;28;20409;-76
2023/01/08 05:41:07;;;;;;;7.20;2.58;;;;;;;;;;4998857;28;20421;-76
2023/01/08 05:43:34;;;;;;;7.50;2.90;;;;;;;;;;4993429;28;20488;-76
2023/01/08 05:46:00;;;;;;;7.68;2.88;;;;;;;;;;4999328;28;20421;-76
2023/01/08 05:48:27;;;;;;;7.83;2.67;;;;;;;;;;5006481;28;20413;-76
2023/01/08 05:50:53;;;;;;;7.15;2.25;;;;;;;;;;5000493;28;20928;-76
2023/01/08 05:53:19;;;;;;;4.88;2.28;;;;;;;;;;4986011;28;20823;-76
2023/01/08 05:55:47;;;;;;;7.75;2.40;;;;;;;;;;5016873;28;20482;-75
2023/01/08 05:58:17;;;;;;;4.57;2.15;;;;;;;;;;4974338;28;20436;-75
2023/01/08 06:00:43;;;;;;;4.93;1.90;;;;;;;;;;4986308;28;20856;-75
2023/01/08 06:03:10;;;;;;;7.13;1.98;;;;;;;;;;5017096;28;20919;-76
2023/01/08 06:05:36;;;;;;;6.40;2.15;;;;;;;;;;5000940;28;20420;-76
2023/01/08 06:08:02;;;;;;;6.18;2.38;;;;;;;;;;5009838;28;20448;-76
2023/01/08 06:10:28;;;;;;;7.70;2.50;;;;;;;;;;5009086;28;20460;-76
2023/01/08 06:12:54;;;;;;;8.00;3.00;;;;;;;;;;5002420;28;20431;-76
2023/01/08 06:15:20;;;;;;;6.20;2.90;;;;;;;;;;5050844;27;20428;-76
2023/01/08 06:17:47;;;;;;;7.53;2.80;;;;;;;;;;5007512;28;20428;-76
2023/01/08 06:20:13;;;;;;;7.38;3.08;;;;;;;;;;5005918;28;20468;-75
2023/01/08 06:22:39;;;;;;;7.22;3.13;;;;;;;;;;5028108;27;20485;-75
2023/01/08 06:25:05;;;;;;;7.65;3.30;;;;;;;;;;5002828;28;20436;-76
2023/01/08 06:27:31;;;;;;;7.45;3.20;;;;;;;;;;5007758;28;20431;-76
2023/01/08 06:29:57;;;;;;;7.40;3.40;;;;;;;;;;5007403;28;20489;-76
2023/01/08 06:32:23;;;;;;;7.47;3.25;;;;;;;;;;4992601;28;20421;-76
2023/01/08 06:34:49;;;;;;;7.35;3.45;;;;;;;;;;4993035;28;20444;-76
2023/01/08 06:37:15;;;;;;;8.73;3.63;;;;;;;;;;4996485;28;20529;-76
2023/01/08 06:39:42;;;;;;;7.45;3.53;;;;;;;;;;4994186;28;20433;-76
2023/01/08 06:42:08;;;;;;;37.45;5.95;;;;;;;;;;4995953;28;20450;-76
2023/01/08 06:44:34;;;;;;;8.50;3.87;;;;;;;;;;5047678;28;20444;-76
2023/01/08 06:47:00;;;;;;;13.40;5.95;;;;;;;;;;4991671;28;20420;-76
2023/01/08 06:49:26;;;;;;;7.80;3.50;;;;;;;;;;5007252;28;20429;-76
2023/01/08 06:51:52;;;;;;;9.55;4.15;;;;;;;;;;4992756;28;20509;-75
2023/01/08 06:54:18;;;;;;;15.27;5.32;;;;;;;;;;5035088;28;20497;-75
2023/01/08 06:56:47;;;;;;;10.68;4.38;;;;;;;;;;5043160;28;20428;-76
2023/01/08 06:59:13;;;;;;;10.85;4.43;;;;;;;;;;5007436;28;20482;-76
2023/01/08 07:01:39;;;;;;;15.85;4.80;;;;;;;;;;5004061;28;20514;-76
2023/01/08 07:04:05;;;;;;;15.85;5.25;;;;;;;;;;4985793;28;20516;-76
2023/01/08 07:06:31;;;;;;;18.42;5.07;;;;;;;;;;5003958;28;20417;-75
2023/01/08 07:08:58;;;;;;;24.20;8.25;;;;;;;;;;5012195;28;20458;-76
2023/01/08 07:11:24;;;;;;;19.10;5.82;;;;;;;;;;4964359;28;20925;-76
2023/01/08 07:13:50;;;;;;;15.20;6.13;;;;;;;;;;5028801;28;20834;-76
2023/01/08 07:16:16;;;;;;;10.20;3.58;;;;;;;;;;4991082;28;20485;-76
2023/01/08 07:18:45;;;;;;;11.95;4.55;;;;;;;;;;4975797;28;20416;-76
2023/01/08 07:21:11;;;;;;;7.95;3.95;;;;;;;;;;4989214;28;20420;-76
2023/01/08 07:23:37;;;;;;;7.93;3.50;;;;;;;;;;4973467;28;20843;-75
2023/01/08 07:26:04;;;;;;;7.95;3.40;;;;;;;;;;4974450;28;20814;-76
2023/01/08 07:28:30;;;;;;;7.75;3.63;;;;;;;;;;4974591;28;20433;-76
2023/01/08 07:30:57;;;;;;;8.65;3.30;;;;;;;;;;5002682;28;20840;-76
2023/01/08 07:33:23;;;;;;;10.73;3.20;;;;;;;;;;4991338;28;20421;-75
2023/01/08 07:35:52;;;;;;;8.17;3.07;;;;;;;;;;4998694;28;20518;-76
2023/01/08 07:38:18;;;;;;;10.07;3.30;;;;;;;;;;4979544;28;20493;-75
2023/01/08 07:40:48;;;;;;;8.50;3.20;;;;;;;;;;5007024;28;20439;-75
2023/01/08 07:43:14;;;;;;;9.55;3.88;;;;;;;;;;5036143;27;20474;-75
2023/01/08 07:45:40;;;;;;;7.53;3.92;;;;;;;;;;5020722;28;20431;-75
2023/01/08 07:48:09;;;;;;;9.77;4.30;;;;;;;;;;5009982;28;20474;-74
2023/01/08 07:50:36;;;;;;;10.30;4.43;;;;;;;;;;5008606;28;20429;-74
2023/01/08 07:53:03;;;;;;;9.88;5.07;;;;;;;;;;4991736;28;20429;-74
2023/01/08 07:55:29;;;;;;;11.57;4.40;;;;;;;;;;5029252;28;20453;-74
2023/01/08 07:57:55;;;;;;;11.00;4.63;;;;;;;;;;5016683;28;20436;-74
2023/01/08 08:00:22;;;;;;;12.27;4.78;;;;;;;;;;5010597;28;20962;-73
2023/01/08 08:02:48;;;;;;;8.40;4.22;;;;;;;;;;5049248;28;20978;-73
2023/01/08 08:05:15;;;;;;;12.38;4.10;;;;;;;;;;4995722;28;20425;-73
2023/01/08 08:07:41;;;;;;;9.38;4.03;;;;;;;;;;5020814;28;20465;-73
2023/01/08 08:10:07;;;;;;;14.38;3.92;;;;;;;;;;5023420;28;20436;-74
2023/01/08 08:12:33;;;;;;;9.50;3.53;;;;;;;;;;4986258;28;20470;-74
2023/01/08 08:14:59;;;;;;;8.02;3.28;;;;;;;;;;5058436;28;20464;-75
2023/01/08 08:17:26;;;;;;;7.70;3.40;;;;;;;;;;5008687;28;20917;-74
2023/01/08 08:19:52;;;;;;;11.52;3.20;;;;;;;;;;5015733;28;20464;-74
2023/01/08 08:22:18;;;;;;;9.00;3.33;;;;;;;;;;4994329;28;20421;-74
2023/01/08 08:24:44;;;;;;;9.38;3.22;;;;;;;;;;5032657;28;20777;-74
2023/01/08 08:27:10;;;;;;;8.75;3.10;;;;;;;;;;4988116;28;20916;-76
2023/01/08 08:29:36;;;;;;;11.48;3.60;;;;;;;;;;5009144;28;20482;-75
2023/01/08 08:32:02;;;;;;;9.00;3.13;;;;;;;;;;5037469;28;20428;-75
2023/01/08 08:34:28;;;;;;;11.85;3.10;;;;;;;;;;4995771;28;20458;-75
2023/01/08 08:36:54;;;;;;;10.48;2.88;;;;;;;;;;5029165;28;20421;-75
2023/01/08 08:39:20;;;;;;;10.27;3.40;;;;;;;;;;5029759;28;20437;-75
2023/01/08 08:41:46;;;;;;;9.88;3.10;;;;;;;;;;5020392;28;20436;-76
2023/01/08 08:44:12;;;;;;;8.23;2.92;;;;;;;;;;4995445;28;20413;-76
2023/01/08 08:46:38;;;;;;;10.10;2.90;;;;;;;;;;5033871;28;20475;-75
2023/01/08 08:49:04;;;;;;;10.75;2.90;;;;;;;;;;5016280;28;20943;-75
2023/01/08 08:51:30;;;;;;;9.98;3.15;;;;;;;;;;5004779;28;20586;-75
2023/01/08 08:53:56;;;;;;;6.13;2.78;;;;;;;;;;4995331;28;20424;-75
2023/01/08 08:56:23;;;;;;;8.18;2.80;;;;;;;;;;5072143;28;20530;-75
2023/01/08 08:58:50;;;;;;;8.73;2.80;;;;;;;;;;5003486;28;20469;-75
2023/01/08 09:01:16;;;;;;;8.25;2.72;;;;;;;;;;5019582;28;20440;-75
2023/01/08 09:03:42;;;;;;;8.57;2.85;;;;;;;;;;5011312;28;20451;-74
2023/01/08 09:06:13;;;;;;;9.45;2.80;;;;;;;;;;5045731;28;20425;-74
2023/01/08 09:08:39;;;;;;;7.03;2.50;;;;;;;;;;5027811;27;21938;-75
2023/01/08 09:11:05;;;;;;;10.93;2.90;;;;;;;;;;5013117;28;20814;-74
2023/01/08 09:13:31;;;;;;;8.23;2.40;;;;;;;;;;4999937;28;20417;-74
2023/01/08 09:15:58;;;;;;;10.10;3.55;;;;;;;;;;5022946;28;20416;-74
2023/01/08 09:18:24;;;;;;;8.50;2.58;;;;;;;;;;5038883;28;20416;-75
2023/01/08 09:20:50;;;;;;;8.82;2.30;;;;;;;;;;5023254;28;20425;-74
2023/01/08 09:23:16;;;;;;;6.57;2.28;;;;;;;;;;5010986;28;20421;-74
2023/01/08 09:25:42;;;;;;;8.75;2.30;;;;;;;;;;4999813;28;20412;-74
2023/01/08 09:28:10;;;;;;;7.40;2.70;;;;;;;;;;5024603;28;20453;-75
2023/01/08 09:30:37;;;;;;;8.95;2.35;;;8.10;99.90;;;;;;5006159;28;20451;-75
2023/01/08 09:33:04;;;;;;;10.13;2.70;;;;;;;;;;4984899;28;20424;-75
2023/01/08 09:35:33;;;;;;;7.47;2.15;;;;;;;;;;5015484;28;20420;-75
2023/01/08 09:37:59;;;;;;;8.15;2.47;;;;;;;;;;4997404;28;20472;-75
2023/01/08 09:40:30;;;;;;;6.03;2.17;;;;;;;;;;5001843;28;20520;-75
2023/01/08 09:42:59;;;;;;;11.20;2.13;;;;;;;;;;4979932;28;20456;-74
2023/01/08 09:45:36;;;;;;;10.17;2.50;;;8.30;99.90;;;;;;4991379;28;20516;-74
2023/01/08 09:48:06;;;;;;;7.13;2.30;;;8.30;99.90;;;;;;5033032;28;20516;-75
2023/01/08 09:50:33;;;;;;;9.32;2.10;;;;;;;;;;5017775;28;20461;-75
2023/01/08 09:52:59;;;;;;;6.30;2.20;;;;;;;;;;5058824;28;20464;-75
2023/01/08 09:55:30;;;;;;;8.45;2.40;;;8.40;99.90;;;;;;5014541;28;20433;-74
2023/01/08 09:57:56;;;;;;;8.10;2.20;;;;;;;;;;5008060;28;20482;-75
2023/01/08 10:00:25;;;;;;;10.93;2.65;;;;;;;;;;5027337;27;20425;-74
2023/01/08 10:02:53;;;;;;;8.63;2.25;;;;;;;;;;5025060;28;20436;-75
2023/01/08 10:05:19;;;;;;;13.32;2.25;;;;;;;;;;4994898;28;20440;-74
2023/01/08 10:07:45;;;;;;;8.52;2.22;;;8.90;99.90;;;;;;5062986;27;20420;-76
2023/01/08 10:10:16;;;;;;;7.30;1.90;;;;;;;;;;4977427;28;20480;-75
2023/01/08 10:12:43;;;;;;;7.33;2.13;;;;;;;;;;5008913;28;20417;-75
2023/01/08 10:15:13;;;;;;;7.53;2.25;;;;;;;;;;4992065;28;20431;-76
2023/01/08 10:17:40;;;;;;;11.17;2.43;;;;;;;;;;5005421;28;20495;-76
2023/01/08 10:20:11;;;;;;;7.57;2.13;;;;;;;;;;4990466;28;20443;-76
2023/01/08 10:22:38;;;;;;;8.80;2.00;;;;;;;;;;5027329;28;20432;-76
2023/01/08 10:25:08;;;;;;;9.15;2.13;;;;;;;;;;5010385;28;20429;-76
2023/01/08 10:27:37;;;;;;;9.80;2.25;;;;;;;;;;5000744;28;20932;-76
2023/01/08 10:30:05;;;;;;;10.13;2.30;;;;;;;;;;5023892;28;20440;-76
2023/01/08 10:32:35;;;;;;;7.53;1.90;;;9.20;99.90;;;;;;4991735;28;20429;-76
2023/01/08 10:35:05;;;;;;;8.32;2.10;;;;;;;;;;5016194;28;20458;-76
2023/01/08 10:37:46;;;;;;;10.32;2.42;;;8.80;99.90;;;;;;5006508;28;20417;-75
2023/01/08 10:40:40;;;;;;;9.27;2.80;;;8.80;99.90;;;;;;4989675;28;20425;-75
2023/01/08 10:43:13;;;;;;;8.50;2.08;;;;;;;;;;5037706;28;20500;-75
2023/01/08 10:45:40;;;;;;;8.20;2.38;;;;;;;;;;5034576;28;20420;-76
2023/01/08 10:48:07;;;;;;;10.65;2.47;;;;;;;;;;4993436;28;20432;-76
2023/01/08 10:50:34;;;;;;;8.57;2.20;;;;;;;;;;5001457;28;20954;-75
2023/01/08 10:53:01;;;;;;;9.18;2.10;;;;;;;;;;5008322;28;20892;-75
2023/01/08 10:55:34;;;;;;;11.27;2.33;;;9.00;99.90;;;;;;5029259;28;20429;-74
2023/01/08 10:58:09;;;;;;;12.55;3.10;;;;;;;;;;4994813;28;20428;-76
2023/01/08 11:00:37;;;;;;;10.90;2.60;;;;;;;;;;5000712;28;20510;-77
2023/01/08 11:03:07;;;;;;;9.38;2.03;;;;;;;;;;4992494;28;20450;-77
2023/01/08 11:05:58;;;;;;;11.27;2.40;;;;;;;;;;5002596;28;20421;-77
2023/01/08 11:08:24;;;;;;;11.02;2.30;;;;;;;;;;5009518;28;20421;-77
2023/01/08 11:10:58;;;;;;;14.77;2.78;;;;;;;;;;4993183;28;20431;-76
2023/01/08 11:13:24;;;;;;;13.55;3.28;;;8.70;99.90;;;;;;4986086;28;20452;-76
2023/01/08 11:16:05;;;;;;;10.75;2.50;;;;;;;;;;5025909;28;20420;-76
2023/01/08 11:18:33;;;;;;;10.30;2.40;;;;;;;;;;4988963;28;20431;-76
2023/01/08 11:21:07;;;;;;;9.55;2.40;;;;;;;;;;4978538;28;20959;-76
2023/01/08 11:23:33;;;;;;;11.60;2.67;;;;;;;;;;4990503;28;20433;-76
2023/01/08 11:26:04;;;;;;;10.80;2.20;;;;;;;;;;4995034;28;20424;-76
2023/01/08 11:28:36;;;;;;;10.70;2.55;;;;;;;;;;5074879;28;20429;-76
2023/01/08 11:31:09;;;;;;;11.85;2.30;;;;;;;;;;4990326;28;20438;-76
2023/01/08 11:33:37;;;;;;;15.00;2.75;;;;;;;;;;4998384;28;20429;-76
2023/01/08 11:36:32;;;;;;;10.02;2.40;;;;;;;;;;4990843;28;20471;-76
2023/01/08 11:38:59;;;;;;;10.50;2.53;;;;;;;;;;5062841;28;20503;-76
2023/01/08 11:41:33;;;;;;;16.10;2.70;;;;;;;;;;5025799;28;20452;-76
2023/01/08 11:43:59;;;;;;;10.35;2.58;;;;;;;;;;4989362;28;20417;-77
2023/01/08 11:46:31;;;;;;;13.30;3.20;;;;;;;;;;4977563;28;20424;-76
2023/01/08 11:49:09;;;;;;;15.23;3.25;;;;;;;;;;5019249;28;20436;-76
2023/01/08 11:51:38;;;;;;;9.18;2.80;;;;;;;;;;4990027;28;20460;-76
2023/01/08 11:54:23;;;;;;;12.27;3.50;;;;;;;;;;5021073;28;20428;-76
2023/01/08 11:56:55;;;;;;;14.02;2.70;;;;;;;;;;5011398;28;20433;-75
2023/01/08 11:59:41;;;;;;;9.65;2.83;;;;;;;;;;4998705;28;21055;-75
2023/01/08 12:02:26;;;;;;;10.30;3.30;;;;;;;;;;4998896;28;20503;-75
2023/01/08 12:05:11;;;;;;;12.40;3.25;;;;;;;;;;4991776;28;20947;-75
2023/01/08 12:07:53;;;;;;;15.07;3.15;;;;;;;;;;4976766;28;20417;-75
2023/01/08 12:10:28;;;;;;;13.68;3.25;;;;;;;;;;4989733;28;20424;-75
2023/01/08 12:13:21;;;;;;;11.82;3.28;;;;;;;;;;4980296;28;20413;-75
2023/01/08 12:16:10;;;;;;;9.75;2.90;;;9.80;99.90;;;;;;4991323;28;20927;-75
2023/01/08 12:18:53;;;;;;;13.23;3.20;;;;;;;;;;5022490;28;20425;-75
2023/01/08 12:21:31;;;;;;;10.80;2.78;;;;;;;;;;5007339;28;20427;-74
2023/01/08 12:24:07;;;;;;;12.02;3.35;;;;;;;;;;5000862;28;20912;-75
2023/01/08 12:26:33;;;;;;;11.35;3.42;;;;;;;;;;4993986;28;20416;-74
2023/01/08 12:29:06;;;;;;;12.97;3.50;;;;;;;;;;5028238;28;20434;-75
2023/01/08 12:31:45;;;;;;;9.52;3.00;;;;;;;;;;5000727;28;20551;-75
2023/01/08 12:34:31;;;;;;;14.07;3.40;;;;;;;;;;4995405;28;20780;-80
2023/01/08 12:37:02;;;;;;;10.75;2.95;;;;;;;;;;5006207;28;20770;-80
2023/01/08 12:39:30;;;;;;;13.15;3.65;;;;;;;;;;5008426;28;20443;-80
2023/01/08 12:42:09;;;;;;;11.80;3.10;;;9.60;99.90;;;;;;5016185;28;20426;-80
2023/01/08 12:44:38;;;;;;;10.88;3.03;;;;;;;;;;4996352;28;20419;-80
2023/01/08 12:47:06;;;;;;;11.45;3.22;;;;;;;;;;4996028;28;20440;-81
2023/01/08 12:49:43;;;;;;;10.10;3.00;;;;;;;;;;5018403;28;20424;-80
2023/01/08 12:52:19;;;;;;;9.93;3.05;;;;;;;;;;4984048;28;20417;-80
2023/01/08 12:54:51;;;;;;;9.30;2.90;;;;;;;;;;5036935;28;20418;-80
2023/01/08 12:57:42;;;;;;;11.38;2.85;;;9.40;99.90;;;;;;4986838;28;20600;-81
2023/01/08 13:00:21;;;;;;;9.05;2.80;;;;;;;;;;5059182;28;20424;-81
2023/01/08 13:03:01;;;;;;;12.43;3.22;;;;;;;;;;4991695;28;22485;-81
2023/01/08 13:05:27;;;;;;;11.43;3.30;;;;;;;;;;5019584;28;20491;-81
2023/01/08 13:07:55;;;;;;;9.98;2.88;;;;;;;;;;5040404;28;20425;-81
2023/01/08 13:10:30;;;;;;;11.93;2.65;;;;;;;;;;5026479;28;20477;-81
2023/01/08 13:12:57;;;;;;;13.40;2.80;;;;;;;;;;5008582;28;20427;-80
2023/01/08 13:15:27;;;;;;;12.00;2.85;;;;;;;;;;5027885;28;21220;-81
2023/01/08 13:17:54;;;;;;;14.65;3.22;;;;;;;;;;5097147;28;20428;-81
2023/01/08 13:20:25;;;;;;;10.23;2.72;;;;;;;;;;5011383;28;20433;-81
2023/01/08 13:23:00;;;;;;;12.75;3.10;;;9.60;99.90;;;;;;5026256;28;20772;-81
2023/01/08 13:25:26;;;;;;;10.18;2.75;;;;;;;;;;5015173;28;20425;-81
2023/01/08 13:27:52;;;;;;;9.02;2.50;;;;;;;;;;5037909;28;20424;-81
2023/01/08 13:30:34;;;;;;;10.32;2.70;;;;;;;;;;5007123;28;21070;-81
2023/01/08 13:33:00;;;;;;;13.75;3.00;;;;;;;;;;4991932;28;20503;-81
2023/01/08 13:35:30;;;;;;;13.27;2.38;;;;;;;;;;5011598;28;20458;-81
2023/01/08 13:38:13;;;;;;;12.97;2.70;;;;;;;;;;4981358;28;20507;-81
2023/01/08 13:40:42;;;;;;;8.68;2.72;;;;;;;;;;5026071;28;20443;-81
2023/01/08 13:43:18;;;;;;;11.20;3.00;;;;;;;;;;5012567;28;20468;-81
2023/01/08 13:45:52;;;;;;;10.77;2.40;;;9.10;99.90;;;;;;5050157;28;20579;-82
2023/01/08 13:48:22;;;;;;;10.52;2.53;;;;;;;;;;5030223;28;20412;-81
2023/01/08 13:50:48;;;;;;;8.63;2.40;;;;;;;;;;5010814;28;20518;-82
2023/01/08 13:53:14;;;;;;;9.65;2.50;;;;;;;;;;4998650;28;20425;-81
2023/01/08 13:55:42;;;;;;;8.80;2.45;;;;;;;;;;5035283;28;20503;-82
2023/01/08 13:58:15;;;;;;;7.68;2.35;;;;;;;;;;4990903;28;20424;-81
2023/01/08 14:00:41;;;;;;;9.90;2.40;;;;;;;;;;5065519;27;20935;-81
2023/01/08 14:03:26;;;;;;;11.75;2.33;;;;;;;;;;5007143;28;20436;-82
2023/01/08 14:05:53;;;;;;;9.15;2.75;;;;;;;;;;4980522;28;20424;-81
2023/01/08 14:08:25;;;;;;;6.67;2.20;;;;;;;;;;5001085;28;20471;-81
2023/01/08 14:10:54;;;;;;;9.82;2.33;;;;;;;;;;5016585;28;20457;-81
2023/01/08 14:13:26;;;;;;;7.10;2.30;;;9.20;99.90;;;;;;5000587;28;20416;-81
2023/01/08 14:15:52;;;;;;;8.45;2.55;;;;;;;;;;4967595;28;20467;-81
2023/01/08 14:18:19;;;;;;;7.25;2.30;;;;;;;;;;5020986;28;20479;-76
2023/01/08 14:20:49;;;;;;;9.85;2.38;;;;;;;;;;4968126;28;20432;-81
2023/01/08 14:23:26;;;;;;;8.20;2.45;;;;;;;;;;4979840;28;20420;-82
2023/01/08 14:25:53;;;;;;;8.87;3.10;;;;;;;;;;4962455;28;20428;-76
2023/01/08 14:28:21;;;;;;;6.68;2.85;;;;;;;;;;5006537;28;20549;-76
2023/01/08 14:30:48;;;;;;;9.65;2.70;;;;;;;;;;4998828;28;20941;-76
2023/01/08 14:33:17;;;;;;;8.27;2.50;;;;;;;;;;5018735;28;20446;-76
2023/01/08 14:35:44;;;;;;;8.23;3.13;;;;;;;;;;4968271;28;20436;-75
2023/01/08 14:38:13;;;;;;;9.07;2.75;;;9.40;99.90;;;;;;4964863;28;20426;-76
2023/01/08 14:40:44;;;;;;;9.53;2.27;;;8.80;99.90;;;;;;4965823;28;20424;-76